Time;durP1;ratioP1;P1;durP2;ratioP2;P2;SDS_P1;SDS_P2;PMS_P1;PMS_P2;Temp;Humidity;BMP_temperature;BMP_pressure;BME280_temperature;BME280_humidity;BME280_pressure;Samples;Min_cycle;Max_cycle;Signal;HPM_P1;HPM_P2
2021/08/16 00:02:38;;;;;;;14.30;11.07;;;20.90;99.90;;;;;;6225331;28;20035;-79
2021/08/16 00:05:39;;;;;;;12.98;10.82;;;20.90;99.90;;;;;;6224991;28;20041;-79
2021/08/16 00:08:39;;;;;;;14.55;11.48;;;20.90;99.90;;;;;;6225380;28;20032;-80
2021/08/16 00:11:40;;;;;;;13.35;11.48;;;21.00;99.90;;;;;;6224773;28;20403;-78
2021/08/16 00:14:40;;;;;;;16.08;12.65;;;20.90;99.90;;;;;;6224966;28;20041;-79
2021/08/16 00:17:41;;;;;;;15.93;12.32;;;20.90;99.90;;;;;;6207433;28;20033;-79
2021/08/16 00:20:42;;;;;;;18.02;11.80;;;20.90;99.90;;;;;;6224780;28;20034;-79
2021/08/16 00:23:42;;;;;;;20.00;12.32;;;21.00;99.90;;;;;;6224410;28;20073;-79
2021/08/16 00:26:43;;;;;;;14.65;11.98;;;20.90;99.90;;;;;;6206847;28;20072;-80
2021/08/16 00:29:43;;;;;;;14.75;12.05;;;20.50;99.90;;;;;;6224366;28;20437;-79
2021/08/16 00:32:44;;;;;;;15.43;11.82;;;20.80;99.90;;;;;;6224072;28;20053;-80
2021/08/16 00:35:44;;;;;;;14.57;12.02;;;20.80;99.90;;;;;;6223669;28;20151;-79
2021/08/16 00:38:45;;;;;;;17.83;11.85;;;20.90;99.90;;;;;;6206587;28;20033;-79
2021/08/16 00:41:46;;;;;;;17.38;11.95;;;20.70;99.90;;;;;;6224097;28;20026;-78
2021/08/16 00:44:46;;;;;;;15.75;11.38;;;20.70;99.90;;;;;;6223896;28;20527;-79
2021/08/16 00:47:47;;;;;;;13.88;11.00;;;20.90;99.90;;;;;;6224131;28;20057;-79
2021/08/16 00:50:48;;;;;;;15.90;12.75;;;20.80;99.90;;;;;;6224277;28;20033;-80
2021/08/16 00:53:49;;;;;;;16.00;11.60;;;;;;;;;;6206453;28;20073;-79
2021/08/16 00:56:50;;;;;;;15.75;11.10;;;;;;;;;;6206381;28;20037;-79
2021/08/16 00:59:50;;;;;;;13.32;11.73;;;;;;;;;;6224012;28;20454;-79
2021/08/16 01:02:52;;;;;;;15.18;10.57;;;20.60;99.90;;;;;;6223706;28;20034;-81
2021/08/16 01:05:55;;;;;;;12.20;10.40;;;20.90;99.90;;;;;;6223742;28;20041;-80
2021/08/16 01:08:56;;;;;;;13.70;11.30;;;;;;;;;;6223856;28;20030;-79
2021/08/16 01:11:57;;;;;;;16.63;10.48;;;;;;;;;;6223707;28;20039;-79
2021/08/16 01:14:59;;;;;;;15.18;11.05;;;20.70;99.90;;;;;;6223603;28;20046;-81
2021/08/16 01:18:00;;;;;;;17.27;11.57;;;20.60;99.90;;;;;;6224024;28;20033;-79
2021/08/16 01:21:01;;;;;;;12.70;11.07;;;20.70;99.90;;;;;;6223544;28;20113;-78
2021/08/16 01:24:02;;;;;;;16.85;10.93;;;20.60;99.90;;;;;;6223696;28;20029;-79
2021/08/16 01:27:07;;;;;;;14.25;11.20;;;20.40;99.90;;;;;;6223202;28;20041;-81
2021/08/16 01:30:09;;;;;;;13.95;11.68;;;20.60;99.90;;;;;;6223321;28;20373;-80
2021/08/16 01:33:10;;;;;;;13.75;11.32;;;20.70;99.90;;;;;;6205382;28;20046;-79
2021/08/16 01:36:10;;;;;;;16.67;12.65;;;20.50;99.90;;;;;;6223204;28;20088;-80
2021/08/16 01:39:11;;;;;;;15.68;11.48;;;20.40;99.90;;;;;;6223259;28;20029;-79
2021/08/16 01:42:11;;;;;;;15.77;11.15;;;20.50;99.90;;;;;;6222952;28;20105;-80
2021/08/16 01:45:12;;;;;;;14.43;11.57;;;20.50;99.90;;;;;;6222810;28;20026;-79
2021/08/16 01:48:13;;;;;;;14.60;10.90;;;20.50;99.90;;;;;;6223190;28;20026;-78
2021/08/16 01:51:14;;;;;;;12.50;10.67;;;20.50;99.90;;;;;;6223088;28;20466;-80
2021/08/16 01:54:15;;;;;;;15.27;10.43;;;;;;;;;;6222731;28;20037;-80
2021/08/16 01:57:16;;;;;;;12.30;10.82;;;20.50;99.90;;;;;;6222775;28;20014;-79
2021/08/16 02:00:16;;;;;;;15.35;11.38;;;20.50;99.90;;;;;;6223036;28;20371;-79
2021/08/16 02:03:17;;;;;;;13.63;10.43;;;20.50;99.90;;;;;;6222989;28;20037;-79
2021/08/16 02:06:18;;;;;;;13.05;11.60;;;20.50;99.90;;;;;;6222639;28;20030;-79
2021/08/16 02:09:19;;;;;;;15.25;11.43;;;20.60;99.90;;;;;;6222655;28;20049;-80
2021/08/16 02:12:20;;;;;;;17.60;10.77;;;20.60;99.90;;;;;;6222663;28;20105;-79
2021/08/16 02:15:20;;;;;;;12.68;11.15;;;20.60;99.90;;;;;;6205044;28;20041;-79
2021/08/16 02:18:21;;;;;;;14.20;10.70;;;20.70;99.90;;;;;;6222580;28;20030;-80
2021/08/16 02:21:21;;;;;;;15.70;10.00;;;20.70;99.90;;;;;;6205108;28;20049;-79
2021/08/16 02:24:22;;;;;;;15.85;10.65;;;20.80;99.90;;;;;;6222842;28;20518;-78
2021/08/16 02:27:23;;;;;;;14.20;10.30;;;20.80;99.90;;;;;;6222517;28;20064;-80
2021/08/16 02:30:24;;;;;;;15.05;10.32;;;20.90;99.90;;;;;;6205195;28;20475;-79
2021/08/16 02:33:24;;;;;;;12.97;9.73;;;20.80;99.90;;;;;;6222031;28;20054;-79
2021/08/16 02:36:25;;;;;;;15.00;9.23;;;20.90;99.90;;;;;;6222740;28;20045;-80
2021/08/16 02:39:25;;;;;;;11.10;9.38;;;21.00;99.90;;;;;;6222652;28;20025;-79
2021/08/16 02:42:26;;;;;;;12.80;9.48;;;21.00;99.90;;;;;;6223001;28;20113;-79
2021/08/16 02:45:26;;;;;;;11.82;9.10;;;21.10;99.90;;;;;;6222688;28;20069;-80
2021/08/16 02:48:27;;;;;;;11.98;8.45;;;21.10;99.90;;;;;;6222237;28;20034;-79
2021/08/16 02:51:28;;;;;;;10.50;9.13;;;21.10;99.90;;;;;;6222432;28;20064;-81
2021/08/16 02:54:28;;;;;;;12.90;8.27;;;21.10;99.90;;;;;;6222412;28;20468;-80
2021/08/16 02:57:29;;;;;;;11.68;8.40;;;21.10;99.90;;;;;;6223578;28;20034;-80
2021/08/16 03:00:29;;;;;;;10.88;7.15;;;21.20;99.90;;;;;;6226697;28;20049;-81
2021/08/16 03:03:30;;;;;;;10.52;8.07;;;21.20;99.90;;;;;;6226388;28;20026;-80
2021/08/16 03:06:31;;;;;;;9.70;7.50;;;21.30;99.90;;;;;;6226205;28;20033;-80
2021/08/16 03:09:31;;;;;;;9.38;7.97;;;21.30;99.90;;;;;;6208947;28;20022;-80
2021/08/16 03:12:32;;;;;;;8.95;7.60;;;21.30;99.90;;;;;;6208824;28;20034;-80
2021/08/16 03:15:32;;;;;;;9.25;7.15;;;21.40;99.90;;;;;;6208875;28;20046;-80
2021/08/16 03:18:33;;;;;;;8.98;7.60;;;21.40;99.90;;;;;;6226082;28;20022;-79
2021/08/16 03:21:34;;;;;;;8.90;7.72;;;21.40;99.90;;;;;;6226256;28;20030;-78
2021/08/16 03:24:34;;;;;;;10.63;7.35;;;21.40;99.90;;;;;;6226020;28;20041;-79
2021/08/16 03:27:35;;;;;;;10.30;7.85;;;21.40;99.90;;;;;;6226098;28;20468;-80
2021/08/16 03:30:36;;;;;;;10.57;7.45;;;21.50;99.90;;;;;;6225870;28;20031;-80
2021/08/16 03:33:36;;;;;;;11.77;7.57;;;21.50;99.90;;;;;;6225719;28;20089;-79
2021/08/16 03:36:37;;;;;;;7.63;6.43;;;21.50;99.90;;;;;;6208252;28;20034;-80
2021/08/16 03:39:37;;;;;;;8.88;7.00;;;21.50;99.90;;;;;;6225916;28;20030;-79
2021/08/16 03:42:38;;;;;;;10.98;7.30;;;21.60;99.90;;;;;;6225477;28;20040;-80
2021/08/16 03:45:39;;;;;;;11.63;7.40;;;21.60;99.90;;;;;;6208355;28;20087;-79
2021/08/16 03:48:39;;;;;;;7.22;6.28;;;21.60;99.90;;;;;;6208091;28;20025;-79
2021/08/16 03:51:40;;;;;;;7.43;6.53;;;21.70;99.90;;;;;;6208016;28;20060;-78
2021/08/16 03:54:40;;;;;;;10.63;7.35;;;21.70;99.90;;;;;;6225636;28;20147;-78
2021/08/16 03:57:41;;;;;;;7.47;6.70;;;21.70;99.90;;;;;;6225456;28;20056;-79
2021/08/16 04:00:42;;;;;;;10.60;6.78;;;21.60;99.90;;;;;;6225487;28;20033;-80
2021/08/16 04:03:43;;;;;;;8.55;7.05;;;21.60;99.90;;;;;;6225496;28;20044;-80
2021/08/16 04:06:44;;;;;;;9.88;7.00;;;21.60;99.90;;;;;;6225230;28;20058;-81
2021/08/16 04:09:45;;;;;;;10.05;6.50;;;21.60;99.90;;;;;;6207554;28;20073;-80
2021/08/16 04:12:45;;;;;;;9.70;7.03;;;21.50;99.90;;;;;;6225183;28;20367;-79
2021/08/16 04:15:46;;;;;;;12.48;7.55;;;21.60;99.90;;;;;;6224940;28;20041;-79
2021/08/16 04:18:46;;;;;;;9.27;6.95;;;21.40;99.90;;;;;;6225016;28;20034;-80
2021/08/16 04:21:47;;;;;;;10.35;6.70;;;21.60;99.90;;;;;;6225020;28;20030;-80
2021/08/16 04:24:48;;;;;;;10.55;7.10;;;21.60;99.90;;;;;;6224829;28;20034;-79
2021/08/16 04:27:49;;;;;;;8.10;7.20;;;21.40;99.90;;;;;;6224388;28;20068;-80
2021/08/16 04:30:50;;;;;;;12.23;7.50;;;21.20;99.90;;;;;;6224661;28;20029;-80
2021/08/16 04:33:53;;;;;;;10.60;7.63;;;21.60;99.90;;;;;;6224563;28;20054;-78
2021/08/16 04:36:53;;;;;;;11.18;6.30;;;21.50;99.90;;;;;;6207044;28;20081;-80
2021/08/16 04:39:57;;;;;;;9.18;6.53;;;21.50;99.90;;;;;;6206479;28;20034;-80
2021/08/16 04:42:57;;;;;;;9.88;6.95;;;21.30;99.90;;;;;;6224071;28;20041;-80
2021/08/16 04:45:58;;;;;;;9.10;7.18;;;;;;;;;;6206895;28;20033;-80
2021/08/16 04:48:59;;;;;;;11.40;7.13;;;21.70;99.90;;;;;;6206656;28;20026;-80
2021/08/16 04:51:59;;;;;;;10.43;6.93;;;21.50;99.90;;;;;;6224315;28;20434;-78
2021/08/16 04:55:00;;;;;;;8.77;6.75;;;21.30;99.90;;;;;;6223810;28;20034;-80
2021/08/16 04:58:01;;;;;;;11.10;7.75;;;21.30;99.90;;;;;;6206581;28;20117;-79
2021/08/16 05:01:01;;;;;;;14.15;6.97;;;21.50;99.90;;;;;;6225414;28;20022;-79
2021/08/16 05:04:02;;;;;;;9.35;6.78;;;21.50;99.90;;;;;;6223578;28;20042;-80
2021/08/16 05:07:03;;;;;;;7.90;7.10;;;21.70;99.90;;;;;;6223932;28;20030;-78
2021/08/16 05:10:06;;;;;;;9.70;7.05;;;20.90;99.90;;;;;;6223427;28;20029;-80
2021/08/16 05:13:07;;;;;;;10.10;7.22;;;21.50;99.90;;;;;;6206456;28;20369;-80
2021/08/16 05:16:08;;;;;;;9.63;7.03;;;21.40;99.90;;;;;;6223403;28;20033;-78
2021/08/16 05:19:08;;;;;;;11.05;6.95;;;21.40;99.90;;;;;;6223488;28;20022;-79
2021/08/16 05:22:09;;;;;;;12.20;7.38;;;21.40;99.90;;;;;;6223062;28;20373;-81
2021/08/16 05:25:10;;;;;;;8.40;6.55;;;21.30;99.90;;;;;;6223723;28;20026;-80
2021/08/16 05:28:11;;;;;;;8.57;6.30;;;21.30;99.90;;;;;;6205618;28;20077;-80
2021/08/16 05:31:11;;;;;;;10.73;6.95;;;21.10;99.90;;;;;;6223451;28;20030;-80
2021/08/16 05:34:12;;;;;;;12.50;6.80;;;21.20;99.90;;;;;;6223424;28;20460;-81
2021/08/16 05:37:12;;;;;;;7.88;6.60;;;21.10;99.90;;;;;;6223098;28;20068;-79
2021/08/16 05:40:13;;;;;;;9.05;6.72;;;21.00;99.90;;;;;;6223083;28;20030;-79
2021/08/16 05:43:14;;;;;;;8.55;6.45;;;21.00;99.90;;;;;;6223391;28;20033;-80
2021/08/16 05:46:14;;;;;;;9.30;7.22;;;21.00;99.90;;;;;;6222971;28;20153;-79
2021/08/16 05:49:15;;;;;;;11.02;6.95;;;21.00;99.90;;;;;;6222916;28;20032;-79
2021/08/16 05:52:16;;;;;;;13.40;6.68;;;21.00;99.90;;;;;;6222988;28;20033;-80
2021/08/16 05:55:16;;;;;;;7.78;6.18;;;21.00;99.90;;;;;;6205667;28;20045;-79
2021/08/16 05:58:17;;;;;;;8.45;6.80;;;21.10;99.90;;;;;;6223118;28;20468;-79
2021/08/16 06:01:17;;;;;;;7.13;5.78;;;21.00;99.90;;;;;;6222787;28;20038;-79
2021/08/16 06:04:18;;;;;;;7.55;6.75;;;21.00;99.90;;;;;;6222761;28;20026;-80
2021/08/16 06:07:20;;;;;;;13.40;7.15;;;21.10;99.90;;;;;;6222660;28;20030;-80
2021/08/16 06:10:21;;;;;;;8.55;6.40;;;20.90;99.90;;;;;;6222595;28;20029;-80
2021/08/16 06:13:21;;;;;;;8.63;6.10;;;21.10;99.90;;;;;;6222546;28;20041;-80
2021/08/16 06:16:22;;;;;;;10.15;6.03;;;20.80;99.90;;;;;;6222895;28;20034;-81
2021/08/16 06:19:23;;;;;;;10.13;5.82;;;20.80;99.90;;;;;;6222933;28;20109;-79
2021/08/16 06:22:23;;;;;;;11.25;6.50;;;20.80;99.90;;;;;;6222935;28;20372;-80
2021/08/16 06:25:24;;;;;;;8.90;6.57;;;20.70;99.90;;;;;;6222804;28;20096;-80
2021/08/16 06:28:24;;;;;;;7.72;6.30;;;20.70;99.90;;;;;;6222464;28;20038;-78
2021/08/16 06:31:25;;;;;;;9.60;6.65;;;20.60;99.90;;;;;;6222491;28;20125;-79
2021/08/16 06:34:26;;;;;;;7.95;6.28;;;20.60;99.90;;;;;;6209143;28;20050;-78
2021/08/16 06:37:26;;;;;;;8.82;6.45;;;20.60;99.90;;;;;;6227086;28;20117;-78
2021/08/16 06:40:27;;;;;;;10.15;6.75;;;20.50;99.90;;;;;;6209863;28;20076;-78
2021/08/16 06:43:28;;;;;;;12.85;7.20;;;20.50;99.90;;;;;;6226832;28;20032;-78
2021/08/16 06:46:28;;;;;;;8.15;6.15;;;20.60;99.90;;;;;;6227003;28;20037;-79
2021/08/16 06:49:29;;;;;;;11.90;6.68;;;20.60;99.90;;;;;;6226977;28;20503;-80
2021/08/16 06:52:29;;;;;;;10.98;6.80;;;20.50;99.90;;;;;;6227174;28;20030;-79
2021/08/16 06:55:30;;;;;;;8.50;6.93;;;20.60;99.90;;;;;;6226445;28;20060;-80
2021/08/16 06:58:31;;;;;;;9.32;6.15;;;20.60;99.90;;;;;;6226745;28;20026;-81
2021/08/16 07:01:32;;;;;;;7.63;6.50;;;20.70;99.90;;;;;;6226619;28;20033;-80
2021/08/16 07:04:34;;;;;;;7.63;6.10;;;20.70;99.90;;;;;;6208712;28;20432;-79
2021/08/16 07:07:35;;;;;;;7.95;6.38;;;20.80;99.90;;;;;;6226503;28;20028;-78
2021/08/16 07:10:36;;;;;;;8.60;5.80;;;20.70;99.90;;;;;;6226403;28;20026;-79
2021/08/16 07:13:36;;;;;;;7.95;6.03;;;20.70;99.90;;;;;;6226321;28;20034;-80
2021/08/16 07:16:37;;;;;;;7.43;5.65;;;21.20;99.90;;;;;;6209005;28;20392;-79
2021/08/16 07:19:37;;;;;;;6.30;5.43;;;21.00;99.90;;;;;;6208809;28;20452;-81
2021/08/16 07:22:38;;;;;;;7.53;6.10;;;21.10;99.90;;;;;;6225867;28;20038;-78
2021/08/16 07:25:39;;;;;;;9.98;6.07;;;21.30;99.90;;;;;;6208695;28;20034;-78
2021/08/16 07:28:41;;;;;;;7.13;6.25;;;21.40;99.90;;;;;;6226101;28;20022;-79
2021/08/16 07:31:41;;;;;;;;;;;21.50;99.90;;;;;;6225963;28;20384;-80
2021/08/16 07:34:42;;;;;;;8.90;6.13;;;21.70;99.90;;;;;;6225739;28;19928;-79
2021/08/16 07:37:42;;;;;;;7.65;5.60;;;21.80;99.90;;;;;;6226316;28;20456;-81
2021/08/16 07:40:43;;;;;;;8.57;5.20;;;22.40;99.90;;;;;;6225973;28;20053;-79
2021/08/16 07:43:43;;;;;;;6.30;4.88;;;22.60;99.90;;;;;;6208083;28;20034;-78
2021/08/16 07:46:44;;;;;;;9.00;4.97;;;23.40;99.90;;;;;;6226216;28;20026;-79
2021/08/16 07:49:45;;;;;;;8.73;5.28;;;24.30;99.90;;;;;;6225679;28;20026;-78
2021/08/16 07:52:45;;;;;;;5.60;4.80;;;25.20;99.90;;;;;;6225339;28;20492;-81
2021/08/16 07:55:46;;;;;;;6.07;4.88;;;25.40;99.90;;;;;;6225159;28;20038;-78
2021/08/16 07:58:46;;;;;;;6.20;4.32;;;25.00;99.90;;;;;;6225429;28;20435;-78
2021/08/16 08:01:47;;;;;;;6.20;4.70;;;;;;;;;;6225253;28;20038;-80
2021/08/16 08:04:48;;;;;;;6.95;4.68;;;;;;;;;;6208017;28;20034;-79
2021/08/16 08:07:49;;;;;;;8.90;5.05;;;23.50;99.90;;;;;;6224961;28;20037;-80
2021/08/16 08:10:50;;;;;;;6.63;4.50;;;23.20;99.90;;;;;;6224886;28;20033;-79
2021/08/16 08:13:50;;;;;;;9.13;5.13;;;22.90;99.90;;;;;;6224582;28;20479;-79
2021/08/16 08:16:51;;;;;;;5.30;4.20;;;;;;;;;;6224629;28;20534;-78
2021/08/16 08:19:54;;;;;;;7.00;4.47;;;22.90;99.90;;;;;;6224998;28;20022;-81
2021/08/16 08:22:55;;;;;;;5.05;4.20;;;22.80;99.90;;;;;;6224797;28;20033;-79
2021/08/16 08:25:55;;;;;;;6.88;4.90;;;22.80;99.90;;;;;;6224756;28;20057;-79
2021/08/16 08:28:56;;;;;;;6.22;3.85;;;23.00;99.70;;;;;;6190665;28;20030;-80
2021/08/16 08:31:57;;;;;;;6.20;3.60;;;22.90;99.10;;;;;;6224461;28;20447;-79
2021/08/16 08:34:57;;;;;;;5.40;3.85;;;22.90;98.80;;;;;;6224712;28;20064;-80
2021/08/16 08:37:58;;;;;;;5.57;4.00;;;22.90;99.50;;;;;;6224521;28;20117;-78
2021/08/16 08:40:59;;;;;;;6.80;4.20;;;23.00;99.90;;;;;;6224431;28;20030;-79
2021/08/16 08:43:59;;;;;;;5.93;3.97;;;23.00;99.50;;;;;;6224374;28;20030;-79
2021/08/16 08:47:00;;;;;;;6.72;4.35;;;;;;;;;;6224152;28;20041;-79
2021/08/16 08:50:01;;;;;;;4.87;3.90;;;25.70;96.30;;;;;;6206501;28;20030;-80
2021/08/16 08:53:02;;;;;;;6.10;4.13;;;25.80;95.60;;;;;;6224064;28;20033;-80
2021/08/16 08:56:04;;;;;;;5.55;4.30;;;25.90;95.60;;;;;;6223213;28;20034;-81
2021/08/16 08:59:04;;;;;;;4.43;3.75;;;26.00;96.10;;;;;;6223827;28;20038;-79
2021/08/16 09:02:07;;;;;;;6.67;4.53;;;25.80;95.90;;;;;;6223796;28;20379;-79
2021/08/16 09:05:08;;;;;;;6.10;3.97;;;25.40;95.80;;;;;;6223557;28;20037;-79
2021/08/16 09:08:23;;;;;;;7.50;4.10;;;24.70;96.70;;;;;;6223836;28;20030;-80
2021/08/16 09:11:25;;;;;;;5.70;4.10;;;24.20;97.70;;;;;;6206002;28;20068;-79
2021/08/16 09:14:25;;;;;;;6.03;4.13;;;23.70;98.20;;;;;;6206287;28;20112;-79
2021/08/16 09:17:35;;;;;;;7.90;4.40;;;22.90;99.90;;;;;;6223631;28;20034;-80
2021/08/16 09:20:36;;;;;;;7.43;4.75;;;22.80;99.90;;;;;;6224122;28;20045;-80
2021/08/16 09:23:48;;;;;;;6.07;4.30;;;22.60;99.90;;;;;;6223508;28;20041;-80
2021/08/16 09:26:49;;;;;;;8.10;5.18;;;22.50;99.90;;;;;;6190917;28;20030;-78
2021/08/16 09:29:50;;;;;;;5.60;4.43;;;;;;;;;;6205976;28;20081;-79
2021/08/16 09:32:51;;;;;;;6.13;4.70;;;22.50;99.90;;;;;;6223235;28;20052;-79
2021/08/16 09:35:52;;;;;;;8.25;5.22;;;22.50;99.90;;;;;;6205848;28;20049;-79
2021/08/16 09:38:53;;;;;;;7.28;4.75;;;22.70;99.90;;;;;;6205776;28;20030;-79
2021/08/16 09:42:01;;;;;;;7.40;4.53;;;22.60;99.90;;;;;;6223044;28;20447;-78
2021/08/16 09:45:02;;;;;;;7.18;4.50;;;23.00;99.90;;;;;;6223009;28;20026;-79
2021/08/16 09:48:03;;;;;;;6.35;4.40;;;23.10;99.90;;;;;;6222975;28;20069;-79
2021/08/16 09:51:04;;;;;;;6.78;4.90;;;23.50;99.90;;;;;;6205868;28;20026;-81
2021/08/16 09:54:04;;;;;;;6.68;5.57;;;24.00;99.90;;;;;;6222921;28;20041;-79
2021/08/16 09:57:06;;;;;;;7.67;5.30;;;23.90;99.90;;;;;;6222716;28;20113;-80
2021/08/16 10:00:07;;;;;;;7.53;4.65;;;23.90;99.90;;;;;;6222816;28;20054;-79
2021/08/16 10:03:08;;;;;;;5.47;4.30;;;;;;;;;;6222941;28;20034;-79
2021/08/16 10:06:11;;;;;;;7.63;5.07;;;24.30;99.10;;;;;;6224009;28;20107;-81
2021/08/16 10:09:13;;;;;;;5.07;4.05;;;;;;;;;;6210642;28;20047;-79
2021/08/16 10:12:13;;;;;;;8.00;4.67;;;24.10;98.80;;;;;;6227694;28;20040;-78
2021/08/16 10:15:14;;;;;;;5.33;4.03;;;24.30;99.80;;;;;;6227452;28;20037;-80
2021/08/16 10:18:17;;;;;;;6.57;4.73;;;24.90;98.40;;;;;;6210015;28;20037;-80
2021/08/16 10:21:21;;;;;;;4.53;4.03;;;25.10;97.80;;;;;;6193957;28;20030;-79
2021/08/16 10:24:28;;;;;;;5.82;4.43;;;25.20;97.30;;;;;;6210015;28;20030;-80
2021/08/16 10:27:30;;;;;;;6.03;4.63;;;25.00;96.80;;;;;;6227433;28;20029;-80
2021/08/16 10:30:31;;;;;;;7.38;4.05;;;24.90;96.30;;;;;;6227105;28;20029;-79
2021/08/16 10:33:42;;;;;;;6.07;4.33;;;25.00;99.90;;;;;;6190017;28;20054;-80
2021/08/16 10:36:42;;;;;;;6.22;4.07;;;24.80;97.90;;;;;;6177840;28;20119;-79
2021/08/16 10:39:45;;;;;;;7.13;4.30;;;24.40;99.90;;;;;;6177649;28;20054;-79
2021/08/16 10:42:46;;;;;;;6.55;4.45;;;;;;;;;;6177508;28;20162;-79
2021/08/16 10:45:51;;;;;;;5.90;4.10;;;24.60;99.90;;;;;;6178676;28;20031;-80
2021/08/16 10:49:02;;;;;;;5.35;3.85;;;24.50;99.90;;;;;;6178471;28;20034;-80
2021/08/16 10:52:04;;;;;;;6.18;4.07;;;24.40;99.90;;;;;;6178260;28;20384;-78
2021/08/16 10:55:07;;;;;;;5.47;4.20;;;24.20;99.90;;;;;;6178567;28;20527;-80
2021/08/16 10:58:09;;;;;;;8.00;4.45;;;24.00;99.90;;;;;;6179371;28;20038;-78
2021/08/16 11:01:13;;;;;;;7.72;4.75;;;23.60;99.90;;;;;;6178428;28;20045;-80
2021/08/16 11:04:16;;;;;;;6.53;4.60;;;23.00;99.90;;;;;;6178171;28;20030;-80
2021/08/16 11:07:22;;;;;;;8.00;4.38;;;22.70;99.90;;;;;;6178116;28;20034;-79
2021/08/16 11:10:23;;;;;;;7.93;5.00;;;22.40;99.90;;;;;;6179961;28;20058;-79
2021/08/16 11:13:23;;;;;;;6.25;4.57;;;22.40;99.90;;;;;;6176665;28;20030;-82
2021/08/16 11:16:24;;;;;;;6.68;4.20;;;22.40;99.90;;;;;;6177887;28;20023;-79
2021/08/16 11:19:26;;;;;;;6.55;4.50;;;21.90;99.90;;;;;;6176893;28;20121;-81
2021/08/16 11:22:26;;;;;;;;;;;21.30;99.90;;;;;;6178746;28;20441;-80
2021/08/16 11:25:27;;;;;;;8.13;4.80;;;21.60;99.90;;;;;;6177900;28;19914;-80
2021/08/16 11:28:29;;;;;;;8.75;5.05;;;21.90;99.90;;;;;;6177682;28;20027;-80
2021/08/16 11:31:30;;;;;;;7.63;4.63;;;21.90;99.90;;;;;;6177327;28;20114;-81
2021/08/16 11:34:55;;;;;;;6.50;4.35;;;22.00;99.90;;;;;;6216496;28;20057;-80
2021/08/16 11:37:56;;;;;;;9.00;4.78;;;22.60;99.80;;;;;;6226147;28;20333;-80
2021/08/16 11:41:04;;;;;;;7.75;5.70;;;23.00;98.40;;;;;;6208193;28;20152;-80
2021/08/16 11:44:12;;;;;;;9.55;5.13;;;23.60;97.60;;;;;;6225688;28;20157;-80
2021/08/16 11:47:13;;;;;;;8.38;4.70;;;24.20;97.40;;;;;;6208222;28;20108;-79
2021/08/16 11:50:15;;;;;;;10.23;4.97;;;24.20;99.90;;;;;;6225655;28;20492;-80
2021/08/16 11:53:15;;;;;;;7.75;4.75;;;24.20;95.80;;;;;;6226135;28;20030;-81
2021/08/16 11:56:16;;;;;;;9.48;4.85;;;23.70;96.20;;;;;;6225384;28;20470;-80
2021/08/16 11:59:16;;;;;;;9.68;5.15;;;23.40;95.80;;;;;;6208188;28;20037;-81
2021/08/16 12:02:25;;;;;;;8.63;4.97;;;23.60;94.90;;;;;;6225155;28;20034;-80
2021/08/16 12:05:26;;;;;;;9.38;4.70;;;23.50;95.10;;;;;;6224792;28;20181;-81
2021/08/16 12:08:27;;;;;;;8.32;4.70;;;23.30;93.70;;;;;;6224951;28;20022;-82
2021/08/16 12:11:28;;;;;;;8.00;4.65;;;23.10;93.40;;;;;;6224906;28;20117;-80
2021/08/16 12:14:29;;;;;;;8.80;4.07;;;23.40;99.90;;;;;;6224638;28;20072;-81
2021/08/16 12:17:30;;;;;;;6.75;4.13;;;23.70;99.90;;;;;;6224652;28;20091;-81
2021/08/16 12:20:41;;;;;;;8.80;4.17;;;23.80;99.90;;;;;;6224850;28;20468;-78
2021/08/16 12:23:42;;;;;;;6.72;4.07;;;23.90;99.90;;;;;;6225084;28;20037;-79
2021/08/16 12:26:42;;;;;;;8.27;3.70;;;23.90;94.90;;;;;;6207071;28;20491;-80
2021/08/16 12:29:44;;;;;;;6.97;3.87;;;23.80;96.10;;;;;;6224328;28;20049;-80
2021/08/16 12:32:45;;;;;;;13.45;4.32;;;23.60;90.30;;;;;;6224487;28;20136;-82
2021/08/16 12:35:56;;;;;;;10.45;4.53;;;23.60;91.00;;;;;;6224550;28;20494;-80
2021/08/16 12:39:01;;;;;;;8.07;3.63;;;23.30;89.70;;;;;;6206964;28;20117;-80
2021/08/16 12:42:08;;;;;;;4.93;3.40;;;23.50;87.20;;;;;;6224709;28;20113;-80
2021/08/16 12:45:12;;;;;;;6.93;3.03;;;23.70;89.60;;;;;;6224005;28;20026;-79
2021/08/16 12:48:12;;;;;;;5.25;3.60;;;23.50;89.20;;;;;;6223979;28;20080;-80
2021/08/16 12:51:13;;;;;;;5.63;3.03;;;23.30;88.10;;;;;;6223998;28;20412;-78
2021/08/16 12:54:13;;;;;;;7.00;3.47;;;23.60;87.80;;;;;;6189960;28;20061;-78
2021/08/16 12:57:14;;;;;;;3.65;2.65;;;23.30;87.40;;;;;;6206651;28;20037;-80
2021/08/16 13:00:15;;;;;;;5.97;3.20;;;23.50;87.00;;;;;;6206213;28;20030;-79
2021/08/16 13:03:16;;;;;;;6.38;3.13;;;23.70;84.90;;;;;;6206631;28;20061;-79
2021/08/16 13:06:17;;;;;;;12.23;3.27;;;23.70;84.60;;;;;;6190203;28;20534;-80
2021/08/16 13:09:17;;;;;;;6.78;3.05;;;23.80;86.00;;;;;;6189872;28;20308;-78
2021/08/16 13:12:18;;;;;;;3.50;2.63;;;24.20;83.20;;;;;;6206408;28;20181;-80
2021/08/16 13:15:20;;;;;;;4.90;2.70;;;23.50;84.90;;;;;;6189951;28;20037;-79
2021/08/16 13:18:21;;;;;;;9.32;3.72;;;23.20;85.90;;;;;;6206468;28;20028;-78
2021/08/16 13:21:22;;;;;;;8.45;3.10;;;23.00;87.30;;;;;;6223442;28;20468;-79
2021/08/16 13:24:22;;;;;;;4.68;2.88;;;23.40;95.90;;;;;;6189931;28;20407;-78
2021/08/16 13:27:23;;;;;;;7.25;3.78;;;23.40;86.20;;;;;;6189666;28;20428;-78
2021/08/16 13:30:23;;;;;;;6.75;3.58;;;23.80;86.70;;;;;;6206057;28;20380;-80
2021/08/16 13:33:24;;;;;;;5.40;3.10;;;24.10;85.50;;;;;;6223283;28;20065;-79
2021/08/16 13:36:25;;;;;;;4.63;3.13;;;23.60;82.00;;;;;;6205533;28;20118;-80
2021/08/16 13:39:26;;;;;;;6.63;2.75;;;23.50;83.80;;;;;;6189849;28;20076;-80
2021/08/16 13:42:27;;;;;;;5.20;3.17;;;23.20;84.10;;;;;;6173238;28;20061;-80
2021/08/16 13:45:27;;;;;;;7.50;4.05;;;22.40;95.90;;;;;;6189536;28;20041;-79
2021/08/16 13:48:28;;;;;;;10.20;3.88;;;22.20;85.60;;;;;;6205858;28;20079;-80
2021/08/16 13:51:29;;;;;;;6.63;3.45;;;22.00;86.80;;;;;;6173404;28;20026;-80
2021/08/16 13:54:29;;;;;;;6.57;3.20;;;21.80;87.00;;;;;;6205573;28;20072;-81
2021/08/16 13:57:30;;;;;;;7.97;3.22;;;21.60;88.60;;;;;;6223595;28;20041;-80
2021/08/16 14:00:30;;;;;;;8.88;3.20;;;21.40;88.50;;;;;;6189440;28;20026;-80
2021/08/16 14:03:31;;;;;;;4.53;3.03;;;21.20;89.70;;;;;;6189369;28;20026;-79
2021/08/16 14:06:32;;;;;;;6.72;3.47;;;21.00;90.00;;;;;;6222849;28;20076;-80
2021/08/16 14:09:32;;;;;;;8.27;3.95;;;20.90;90.40;;;;;;6222536;28;20451;-80
2021/08/16 14:12:33;;;;;;;8.43;4.20;;;20.90;90.80;;;;;;6205366;28;20033;-79
2021/08/16 14:15:45;;;;;;;6.38;3.80;;;20.80;99.30;;;;;;6188575;28;20042;-80
2021/08/16 14:18:46;;;;;;;;;;;21.40;91.80;;;;;;6205775;28;20018;-80
2021/08/16 14:21:46;;;;;;;7.65;4.25;;;21.00;91.60;;;;;;6204811;28;20367;-78
2021/08/16 14:24:47;;;;;;;6.05;4.05;;;20.90;91.60;;;;;;6172840;28;20494;-79
2021/08/16 14:27:47;;;;;;;7.43;4.47;;;21.10;91.20;;;;;;6205025;28;20034;-80
2021/08/16 14:30:48;;;;;;;6.97;3.80;;;21.30;91.30;;;;;;6188799;28;20038;-78
2021/08/16 14:33:49;;;;;;;6.85;3.70;;;21.30;90.80;;;;;;6188714;28;20133;-78
2021/08/16 14:36:49;;;;;;;6.53;3.22;;;21.20;91.80;;;;;;6222730;28;20034;-79
2021/08/16 14:39:50;;;;;;;5.43;3.25;;;21.30;91.20;;;;;;6189426;28;20032;-80
2021/08/16 14:42:50;;;;;;;5.15;3.20;;;21.40;90.80;;;;;;6222290;28;20030;-80
2021/08/16 14:45:52;;;;;;;4.13;2.83;;;21.40;90.80;;;;;;6204734;28;20483;-79
2021/08/16 14:48:53;;;;;;;5.93;3.42;;;21.40;90.20;;;;;;6222235;28;20069;-78
2021/08/16 14:51:53;;;;;;;6.40;3.25;;;21.30;89.70;;;;;;6204723;28;20413;-78
2021/08/16 14:54:54;;;;;;;5.47;3.13;;;21.30;90.40;;;;;;6208433;28;20038;-79
2021/08/16 14:57:55;;;;;;;6.45;3.63;;;21.30;90.60;;;;;;6193577;28;20491;-80
2021/08/16 15:00:56;;;;;;;6.72;2.80;;;21.30;90.90;;;;;;6209135;28;20057;-78
2021/08/16 15:03:56;;;;;;;6.22;3.10;;;21.20;90.50;;;;;;6226629;28;20352;-80
2021/08/16 15:06:57;;;;;;;5.65;3.08;;;21.20;90.80;;;;;;6176858;28;20489;-79
2021/08/16 15:09:57;;;;;;;4.25;2.60;;;21.30;90.90;;;;;;6192628;28;20045;-80
2021/08/16 15:12:58;;;;;;;6.15;3.08;;;21.10;99.90;;;;;;6209002;28;20058;-79
2021/08/16 15:16:02;;;;;;;4.10;2.80;;;21.10;99.90;;;;;;6226209;28;20438;-79
2021/08/16 15:19:03;;;;;;;5.30;2.88;;;21.10;97.30;;;;;;6209181;28;20022;-79
2021/08/16 15:22:03;;;;;;;6.10;2.88;;;20.90;99.90;;;;;;6192365;28;20057;-80
2021/08/16 15:25:09;;;;;;;4.45;2.22;;;20.60;97.50;;;;;;6208418;28;20034;-79
2021/08/16 15:28:09;;;;;;;4.63;2.40;;;20.80;99.90;;;;;;6209563;28;20077;-79
2021/08/16 15:31:10;;;;;;;5.93;2.90;;;20.90;99.90;;;;;;6192460;28;20026;-79
2021/08/16 15:34:10;;;;;;;6.50;2.88;;;20.90;99.90;;;;;;6208187;28;20054;-79
2021/08/16 15:37:14;;;;;;;3.88;2.22;;;20.80;92.70;;;;;;6226052;28;20053;-78
2021/08/16 15:40:15;;;;;;;3.97;2.47;;;20.60;99.90;;;;;;6191938;28;20385;-78
2021/08/16 15:43:16;;;;;;;4.47;3.05;;;;;;;;;;6208432;28;20117;-80
2021/08/16 15:46:17;;;;;;;5.38;2.83;;;;;;;;;;6208416;28;20029;-79